Quebec, Canada
Current Conditions -  °F | °C
As of 12:00 AM on Thursday 23 Oct 2014 (Local Time) from CYQB Reporting Station
Clear Clear  
Wind Chill: 36°   Ceiling: Unl
Heat Index: 43°   Visibility: 14mi
Dew Point: 30°   Wind: 14mph
Humidity: 61%   Direction: 60°ENE
Pressure: 30.27"   Gusts: 20mph
Location:  46.81°N, 71.22°W
Report Text: CYQB 230400Z 06012G17KT 14SM SKC 06/M01 A3027 RMK SLP252
Loading
Personal Weather Stations






























Interactive Weather Map
Tropical Storm Tracking
New forecast layout! Learn more

10-Day Weather Forecast

Advertisements
Track Severe Weather on mobile